Terminal Aerodrome Forecast
Issued by NWS Twin Cities, MN

Home | Current Version | Previous Version | Graphics & Text | Print | Product List | Glossary On
Versions: 1 2 3 4 5 6 7 8 9 10 11 12 13 14 15 16 17 18 19 20 21 22 23 24 25 26 27
000
FTUS43 KMPX 262321
TAFMSP
TAF
KMSP 262321Z 2700/2806 13009KT P6SM FEW045 FEW110
     FM270200 12005KT P6SM FEW250
     FM271000 12004KT 6SM BR FEW250
     FM271300 13008KT P6SM SCT040
     FM271800 14011G16KT P6SM SCT050
     FM280200 15008KT P6SM BKN050=

USA.gov is the U.S. government's official web portal to all federal, state and local government web resources and services.